Time;durP1;ratioP1;P1;durP2;ratioP2;P2;SDS_P1;SDS_P2;PMS_P1;PMS_P2;Temp;Humidity;BMP_temperature;BMP_pressure;BME280_temperature;BME280_humidity;BME280_pressure;Samples;Min_cycle;Max_cycle;Signal;HPM_P1;HPM_P2
2023/11/16 00:00:06;;;;;;;11.30;3.63;;;;;;;;;;2612523;39;20816;-75
2023/11/16 00:02:34;;;;;;;9.67;3.80;;;;;;;;;;2612167;54;20405;-76
2023/11/16 00:05:02;;;;;;;11.80;4.17;;;;;;;;;;2611673;39;21159;-75
2023/11/16 00:07:28;;;;;;;7.07;3.33;;;;;;;;;;2611776;54;20413;-76
2023/11/16 00:09:54;;;;;;;9.80;4.20;;;;;;;;;;2611727;54;20413;-75
2023/11/16 00:12:21;;;;;;;8.20;3.20;;;;;;;;;;2612068;54;20505;-74
2023/11/16 00:14:47;;;;;;;5.80;3.00;;;;;;;;;;2611729;54;20433;-74
2023/11/16 00:17:13;;;;;;;13.77;4.53;;;;;;;;;;2612439;54;20436;-74
2023/11/16 00:19:41;;;;;;;7.30;3.90;;;;;;;;;;2611114;47;20433;-74
2023/11/16 00:22:08;;;;;;;10.13;3.10;;;;;;;;;;2611704;54;20492;-75
2023/11/16 00:24:34;;;;;;;12.50;4.23;;;;;;;;;;2610713;47;20423;-74
2023/11/16 00:27:00;;;;;;;6.30;3.00;;;;;;;;;;2611874;39;20528;-74
2023/11/16 00:29:26;;;;;;;6.77;2.73;;;;;;;;;;2612293;54;20392;-74
2023/11/16 00:31:53;;;;;;;13.93;5.30;;;;;;;;;;2611338;47;20518;-75
2023/11/16 00:34:19;;;;;;;9.90;3.63;;;;;;;;;;2611595;54;20441;-75
2023/11/16 00:36:45;;;;;;;5.73;2.80;;;;;;;;;;2610960;54;21404;-75
2023/11/16 00:39:12;;;;;;;10.60;3.70;;;;;;;;;;2610446;54;20361;-76
2023/11/16 00:41:39;;;;;;;5.07;3.20;;;;;;;;;;2610775;54;20426;-74
2023/11/16 00:44:05;;;;;;;11.43;3.10;;;;;;;;;;2610495;54;20416;-75
2023/11/16 00:46:35;;;;;;;8.60;3.67;;;;;;;;;;2610826;54;21001;-75
2023/11/16 00:49:01;;;;;;;5.50;2.80;;;;;;;;;;2611317;47;20973;-74
2023/11/16 00:51:28;;;;;;;11.17;4.60;;;;;;;;;;2611029;54;20418;-73
2023/11/16 00:53:55;;;;;;;5.13;3.00;;;;;;;;;;2611053;54;21502;-74
2023/11/16 00:56:21;;;;;;;5.63;3.70;;;;;;;;;;2611104;54;20511;-73
2023/11/16 00:58:49;;;;;;;13.53;4.23;;;;;;;;;;2611909;54;20423;-73
2023/11/16 01:01:16;;;;;;;9.53;2.90;;;;;;;;;;2611054;47;20407;-73
2023/11/16 01:03:43;;;;;;;11.63;3.90;;;;;;;;;;2611553;47;20526;-75
2023/11/16 01:06:09;;;;;;;5.27;3.20;;;;;;;;;;2611471;39;20824;-74
2023/11/16 01:08:37;;;;;;;10.17;3.70;;;;;;;;;;2611115;47;20506;-74
2023/11/16 01:11:09;;;;;;;17.50;3.30;;;;;;;;;;2611226;54;20409;-73
2023/11/16 01:13:38;;;;;;;8.30;3.33;;;;;;;;;;2611128;54;20425;-75
2023/11/16 01:16:14;;;;;;;9.70;3.20;;;;;;;;;;2610382;47;20407;-76
2023/11/16 01:18:50;;;;;;;9.83;2.97;;;;;;;;;;2611200;54;20421;-74
2023/11/16 01:21:16;;;;;;;6.33;5.07;;;;;;;;;;2611013;54;20480;-74
2023/11/16 01:23:47;;;;;;;8.30;3.90;;;;;;;;;;2611820;54;20560;-78
2023/11/16 01:26:15;;;;;;;6.53;3.47;;;;;;;;;;2610671;54;20421;-76
2023/11/16 01:28:58;;;;;;;7.40;3.97;;;;;;;;;;2611267;47;20406;-74
2023/11/16 01:31:24;;;;;;;3.97;3.50;;;;;;;;;;2613242;54;20422;-74
2023/11/16 01:33:51;;;;;;;5.20;2.77;;;;;;;;;;2613333;54;20442;-75
2023/11/16 01:36:18;;;;;;;6.27;3.10;;;;;;;;;;2611587;54;20406;-75
2023/11/16 01:38:45;;;;;;;12.97;4.37;;;;;;;;;;2612647;46;20416;-75
2023/11/16 01:41:16;;;;;;;6.53;2.70;;;;;;;;;;2613041;54;21007;-73
2023/11/16 01:43:42;;;;;;;3.80;1.93;;;;;;;;;;2612632;54;21012;-73
2023/11/16 01:46:09;;;;;;;13.23;3.27;;;;;;;;;;2613155;54;20449;-73
2023/11/16 01:48:37;;;;;;;4.97;2.53;;;;;;;;;;2613428;54;20489;-73
2023/11/16 01:51:05;;;;;;;12.80;4.37;;;;;;;;;;2612672;54;20405;-73
2023/11/16 01:53:34;;;;;;;7.77;2.43;;;;;;;;;;2612573;54;20425;-74
2023/11/16 01:56:00;;;;;;;6.83;4.23;;;;;;;;;;2613141;39;20789;-77
2023/11/16 01:58:27;;;;;;;11.00;4.07;;;;;;;;;;2613172;54;20452;-74
2023/11/16 02:00:53;;;;;;;7.23;2.73;;;;;;;;;;2613073;54;20394;-75
2023/11/16 02:03:19;;;;;;;8.23;1.90;;;;;;;;;;2612860;54;20518;-75
2023/11/16 02:05:45;;;;;;;12.30;4.83;;;;;;;;;;2612195;47;20537;-73
2023/11/16 02:08:12;;;;;;;11.70;3.37;;;;;;;;;;2612521;47;20421;-74
2023/11/16 02:10:38;;;;;;;9.80;3.37;;;;;;;;;;2611300;54;20398;-73
2023/11/16 02:13:05;;;;;;;5.33;2.87;;;;;;;;;;2610442;46;20415;-74
2023/11/16 02:15:34;;;;;;;7.80;3.50;;;;;;;;;;2610422;47;20403;-74
2023/11/16 02:18:00;;;;;;;13.53;4.30;;;;;;;;;;2611069;54;20406;-74
2023/11/16 02:20:28;;;;;;;23.40;4.40;;;;;;;;;;2610798;54;21011;-74
2023/11/16 02:22:54;;;;;;;5.40;3.07;;;;;;;;;;2611300;54;20374;-74
2023/11/16 02:25:26;;;;;;;11.10;3.30;;;;;;;;;;2610043;47;20572;-74
2023/11/16 02:27:53;;;;;;;7.57;3.10;;;;;;;;;;2612508;54;20399;-77
2023/11/16 02:30:20;;;;;;;6.87;2.83;;;;;;;;;;2613408;54;20503;-77
2023/11/16 02:32:46;;;;;;;5.03;2.80;;;;;;;;;;2613537;54;20960;-78
2023/11/16 02:35:13;;;;;;;7.67;2.97;;;;;;;;;;2614207;54;20422;-78
2023/11/16 02:37:40;;;;;;;9.13;4.20;;;;;;;;;;2614714;54;20411;-78
2023/11/16 02:40:07;;;;;;;8.80;3.50;;;;;;;;;;2613258;54;20459;-77
2023/11/16 02:42:34;;;;;;;5.50;2.90;;;;;;;;;;2614705;39;20820;-77
2023/11/16 02:45:00;;;;;;;11.43;3.40;;;;;;;;;;2613410;54;20419;-77
2023/11/16 02:47:28;;;;;;;7.00;3.57;;;;;;;;;;2612768;54;20403;-77
2023/11/16 02:49:54;;;;;;;6.70;2.97;;;;;;;;;;2613244;54;20426;-77
2023/11/16 02:52:20;;;;;;;17.57;3.87;;;;;;;;;;2611994;54;20418;-75
2023/11/16 02:54:47;;;;;;;10.20;4.73;;;;;;;;;;2612370;54;20409;-74
2023/11/16 02:57:14;;;;;;;4.40;2.67;;;;;;;;;;2612799;54;20509;-74
2023/11/16 02:59:40;;;;;;;13.87;3.30;;;;;;;;;;2612553;54;20395;-75
2023/11/16 03:02:06;;;;;;;8.53;3.73;;;;;;;;;;2609881;54;20417;-75
2023/11/16 03:04:33;;;;;;;7.43;3.27;;;;;;;;;;2611707;47;20413;-75
2023/11/16 03:06:59;;;;;;;6.50;2.53;;;;;;;;;;2612513;54;20465;-74
2023/11/16 03:09:25;;;;;;;17.13;4.00;;;;;;;;;;2611534;47;20429;-74
2023/11/16 03:11:52;;;;;;;4.53;2.87;;;;;;;;;;2611002;54;20543;-75
2023/11/16 03:14:19;;;;;;;6.70;3.50;;;;;;;;;;2610834;54;20868;-74
2023/11/16 03:16:47;;;;;;;9.87;3.37;;;;;;;;;;2611255;50;20910;-74
2023/11/16 03:19:14;;;;;;;9.63;4.33;;;;;;;;;;2610151;54;20434;-75
2023/11/16 03:21:40;;;;;;;5.93;2.90;;;;;;;;;;2610414;54;20456;-74
2023/11/16 03:24:06;;;;;;;11.33;3.73;;;;;;;;;;2610448;54;20393;-74
2023/11/16 03:26:32;;;;;;;9.67;3.50;;;;;;;;;;2610994;39;20793;-76
2023/11/16 03:28:58;;;;;;;9.33;3.80;;;;;;;;;;2612388;39;20790;-74
2023/11/16 03:31:24;;;;;;;8.20;2.90;;;;;;;;;;2611624;54;20377;-74
2023/11/16 03:33:50;;;;;;;13.33;4.13;;;;;;;;;;2609701;54;20423;-75
2023/11/16 03:36:16;;;;;;;8.70;3.80;;;;;;;;;;2610637;54;20394;-75
2023/11/16 03:38:42;;;;;;;12.30;5.67;;;;;;;;;;2610554;54;20498;-72
2023/11/16 03:41:09;;;;;;;10.53;3.23;;;;;;;;;;2611461;54;20522;-74
2023/11/16 03:43:35;;;;;;;11.37;4.83;;;;;;;;;;2610725;39;21306;-74
2023/11/16 03:46:02;;;;;;;5.10;3.00;;;;;;;;;;2609640;54;20468;-73
2023/11/16 03:48:28;;;;;;;9.43;3.20;;;;;;;;;;2611624;54;20402;-74
2023/11/16 03:50:54;;;;;;;13.73;4.27;;;;;;;;;;2612557;54;20432;-74
2023/11/16 03:53:20;;;;;;;7.10;2.70;;;;;;;;;;2610669;54;20969;-75
2023/11/16 03:55:46;;;;;;;15.70;4.03;;;;;;;;;;2610070;39;21147;-75
2023/11/16 03:58:12;;;;;;;13.23;3.23;;;;;;;;;;2610379;54;20425;-73
2023/11/16 04:00:38;;;;;;;10.63;3.60;;;;;;;;;;2609416;47;20410;-74
2023/11/16 04:03:04;;;;;;;10.60;3.87;;;;;;;;;;2612207;47;20436;-73
2023/11/16 04:05:31;;;;;;;10.43;3.50;;;;;;;;;;2612284;54;20980;-74
2023/11/16 04:07:57;;;;;;;9.20;3.63;;;;;;;;;;2614010;54;20427;-75
2023/11/16 04:10:25;;;;;;;9.87;3.23;;;;;;;;;;2612587;54;20419;-76
2023/11/16 04:12:52;;;;;;;10.57;4.10;;;;;;;;;;2612521;47;20486;-76
2023/11/16 04:15:18;;;;;;;6.30;3.20;;;;;;;;;;2612809;54;21070;-76
2023/11/16 04:17:44;;;;;;;11.90;3.50;;;;;;;;;;2613094;54;20414;-74
2023/11/16 04:20:11;;;;;;;6.73;3.73;;;;;;;;;;2613251;39;20791;-78
2023/11/16 04:22:39;;;;;;;7.30;4.33;;;;;;;;;;2612515;54;20986;-73
2023/11/16 04:25:08;;;;;;;10.53;4.00;;;;;;;;;;2610620;54;20441;-73
2023/11/16 04:27:34;;;;;;;8.73;3.90;;;;;;;;;;2611604;54;20401;-73
2023/11/16 04:30:00;;;;;;;11.43;3.80;;;;;;;;;;2612058;39;20802;-74
2023/11/16 04:32:26;;;;;;;17.90;5.27;;;;;;;;;;2611574;54;20668;-73
2023/11/16 04:34:52;;;;;;;33.23;6.10;;;;;;;;;;2611707;54;20938;-73
2023/11/16 04:37:19;;;;;;;5.17;3.53;;;;;;;;;;2612178;54;20470;-71
2023/11/16 04:39:45;;;;;;;10.40;4.63;;;;;;;;;;2611484;47;20430;-73
2023/11/16 04:42:11;;;;;;;8.30;4.37;;;;;;;;;;2611929;54;20412;-73
2023/11/16 04:44:37;;;;;;;8.60;4.90;;;;;;;;;;2610643;54;20446;-73
2023/11/16 04:47:05;;;;;;;6.57;3.90;;;;;;;;;;2611508;54;21357;-73
2023/11/16 04:49:31;;;;;;;8.83;4.97;;;;;;;;;;2610837;54;20409;-74
2023/11/16 04:51:57;;;;;;;10.03;4.17;;;;;;;;;;2610536;54;20519;-74
2023/11/16 04:54:24;;;;;;;12.70;3.97;;;;;;;;;;2611380;54;20452;-72
2023/11/16 04:56:50;;;;;;;8.67;3.53;;;;;;;;;;2611621;54;20409;-74
2023/11/16 04:59:16;;;;;;;8.03;4.57;;;;;;;;;;2611287;54;20424;-74
2023/11/16 05:01:43;;;;;;;15.47;5.17;;;;;;;;;;2611495;54;20417;-75
2023/11/16 05:04:09;;;;;;;17.37;5.50;;;;;;;;;;2612093;31;20853;-74
2023/11/16 05:06:39;;;;;;;9.70;4.20;;;;;;;;;;2612925;54;20397;-75
2023/11/16 05:09:05;;;;;;;15.90;5.37;;;;;;;;;;2611965;54;20387;-74
2023/11/16 05:11:33;;;;;;;9.70;4.33;;;;;;;;;;2612919;47;20417;-75
2023/11/16 05:13:59;;;;;;;13.53;6.20;;;;;;;;;;2613124;54;20509;-75
2023/11/16 05:16:26;;;;;;;14.10;4.90;;;;;;;;;;2613547;54;20445;-76
2023/11/16 05:18:53;;;;;;;13.23;6.00;;;;;;;;;;2612409;54;20413;-73
2023/11/16 05:21:19;;;;;;;8.13;3.80;;;;;;;;;;2611876;54;20597;-75
2023/11/16 05:23:46;;;;;;;10.27;5.20;;;;;;;;;;2612312;54;20450;-74
2023/11/16 05:26:11;;;;;;;11.23;4.83;;;;;;;;;;2612712;54;20476;-75
2023/11/16 05:28:37;;;;;;;15.50;5.47;;;;;;;;;;2612314;54;20535;-74
2023/11/16 05:31:04;;;;;;;27.17;6.10;;;;;;;;;;2611899;54;20407;-74
2023/11/16 05:33:31;;;;;;;13.23;6.33;;;;;;;;;;2611053;54;20430;-75
2023/11/16 05:35:59;;;;;;;10.50;5.10;;;;;;;;;;2609873;54;21027;-74
2023/11/16 05:38:25;;;;;;;13.20;6.23;;;;;;;;;;2609625;54;20450;-74
2023/11/16 05:40:52;;;;;;;19.57;6.60;;;;;;;;;;2608580;54;21192;-74
2023/11/16 05:43:18;;;;;;;10.57;5.20;;;;;;;;;;2609575;47;20455;-74
2023/11/16 05:45:44;;;;;;;10.83;5.50;;;;;;;;;;2610724;54;20404;-74
2023/11/16 05:48:10;;;;;;;35.03;9.37;;;;;;;;;;2611110;50;20428;-74
2023/11/16 05:50:37;;;;;;;11.60;5.50;;;;;;;;;;2610538;47;20391;-73
2023/11/16 05:53:03;;;;;;;14.00;7.50;;;;;;;;;;2610987;54;20401;-75
2023/11/16 05:55:33;;;;;;;9.63;6.90;;;;;;;;;;2610683;54;20385;-73
2023/11/16 05:57:59;;;;;;;25.97;6.33;;;;;;;;;;2609804;47;20435;-74
2023/11/16 06:00:25;;;;;;;15.70;6.20;;;;;;;;;;2610535;47;20425;-73
2023/11/16 06:02:52;;;;;;;10.30;5.93;;;;;;;;;;2610791;47;20430;-73
2023/11/16 06:05:18;;;;;;;12.70;5.50;;;;;;;;;;2611301;54;21052;-74
2023/11/16 06:07:44;;;;;;;15.63;4.57;;;;;;;;;;2611791;54;20437;-74
2023/11/16 06:10:10;;;;;;;15.43;6.13;;;;;;;;;;2612860;39;20796;-73
2023/11/16 06:12:38;;;;;;;7.50;4.50;;;;;;;;;;2611756;47;20512;-75
2023/11/16 06:15:07;;;;;;;13.83;6.27;;;;;;;;;;2612801;54;20382;-73
2023/11/16 06:17:33;;;;;;;19.13;6.17;;;;;;;;;;2612077;39;21138;-73
2023/11/16 06:19:59;;;;;;;12.93;5.80;;;;;;;;;;2611005;54;20433;-73
2023/11/16 06:22:25;;;;;;;16.20;5.50;;;;;;;;;;2611937;47;20515;-77
2023/11/16 06:24:52;;;;;;;11.50;6.10;;;;;;;;;;2612931;54;20585;-75
2023/11/16 06:27:19;;;;;;;9.97;4.80;;;;;;;;;;2612136;47;20442;-76
2023/11/16 06:29:46;;;;;;;8.20;5.13;;;;;;;;;;2613885;54;20891;-76
2023/11/16 06:32:12;;;;;;;13.03;5.30;;;;;;;;;;2613554;54;20541;-77
2023/11/16 06:34:38;;;;;;;15.07;6.43;;;;;;;;;;2613300;54;20412;-76
2023/11/16 06:37:04;;;;;;;13.47;5.57;;;;;;;;;;2613622;54;20439;-75
2023/11/16 06:39:30;;;;;;;17.07;7.70;;;;;;;;;;2613741;46;20448;-77
2023/11/16 06:41:57;;;;;;;8.23;5.03;;;;;;;;;;2612598;51;20425;-77
2023/11/16 06:44:24;;;;;;;15.50;8.07;;;;;;;;;;2612198;47;20429;-76
2023/11/16 06:46:51;;;;;;;22.43;5.63;;;;;;;;;;2613014;51;20412;-76
2023/11/16 06:49:18;;;;;;;13.37;5.77;;;;;;;;;;2613781;54;20555;-76
2023/11/16 06:51:46;;;;;;;7.60;5.23;;;;;;;;;;2614144;54;20541;-85
2023/11/16 06:54:14;;;;;;;10.80;5.60;;;;;;;;;;2615437;54;20410;-82
2023/11/16 06:56:40;;;;;;;15.43;4.97;;;;;;;;;;2612558;54;20507;-74
2023/11/16 06:59:12;;;;;;;9.67;4.07;;;;;;;;;;2610879;54;20434;-75
2023/11/16 07:01:38;;;;;;;14.73;5.83;;;;;;;;;;2611048;54;20469;-77
2023/11/16 07:04:05;;;;;;;10.93;5.47;;;;;;;;;;2610034;47;20475;-76
2023/11/16 07:06:31;;;;;;;9.27;5.50;;;;;;;;;;2612278;54;20447;-75
2023/11/16 07:08:57;;;;;;;10.97;5.93;;;;;;;;;;2611555;54;20444;-76
2023/11/16 07:11:23;;;;;;;18.70;5.73;;;;;;;;;;2611448;54;20427;-75
2023/11/16 07:13:50;;;;;;;12.87;5.90;;;;;;;;;;2610087;54;20434;-76
2023/11/16 07:16:16;;;;;;;14.23;5.50;;;;;;;;;;2610576;51;21105;-75
2023/11/16 07:18:42;;;;;;;19.00;7.00;;;;;;;;;;2610564;54;20425;-75
2023/11/16 07:21:09;;;;;;;37.37;7.90;;;;;;;;;;2611328;54;20536;-77
2023/11/16 07:23:36;;;;;;;25.23;5.77;;;;;;;;;;2611100;51;20453;-75
2023/11/16 07:26:08;;;;;;;21.27;6.87;;;;;;;;;;2611026;54;20430;-76
2023/11/16 07:28:34;;;;;;;15.23;6.40;;;;;;;;;;2610618;54;20429;-76
2023/11/16 07:31:01;;;;;;;14.60;5.00;;;;;;;;;;2611511;39;20906;-76
2023/11/16 07:33:27;;;;;;;10.97;5.67;;;;;;;;;;2611221;54;20418;-74
2023/11/16 07:35:53;;;;;;;13.83;5.97;;;;;;;;;;2609502;54;20522;-74
2023/11/16 07:38:20;;;;;;;15.53;5.10;;;;;;;;;;2609974;54;20966;-74
2023/11/16 07:40:46;;;;;;;13.80;5.57;;;;;;;;;;2610211;54;20396;-74
2023/11/16 07:43:13;;;;;;;21.47;6.63;;;;;;;;;;2610062;47;20447;-74
2023/11/16 07:45:39;;;;;;;11.90;6.50;;;;;;;;;;2610251;54;20469;-75
2023/11/16 07:48:05;;;;;;;16.53;6.50;;;;;;;;;;2612277;54;21116;-75
2023/11/16 07:50:32;;;;;;;8.37;5.80;;;;;;;;;;2610400;54;20463;-74
2023/11/16 07:53:00;;;;;;;14.33;5.70;;;;;;;;;;2610563;54;20500;-75
2023/11/16 07:55:27;;;;;;;10.17;5.20;;;;;;;;;;2610314;54;20397;-75
2023/11/16 07:57:54;;;;;;;9.27;5.13;;;;;;;;;;2610755;39;20912;-74
2023/11/16 08:00:31;;;;;;;12.40;5.43;;;;;;;;;;2611318;39;20804;-75
2023/11/16 08:05:46;;;;;;;19.87;5.43;;;;;;;;;;2611901;54;21099;-74
2023/11/16 08:08:14;;;;;;;10.53;4.77;;;;;;;;;;2610905;54;20446;-75
2023/11/16 08:10:49;;;;;;;9.07;5.57;;;;;;;;;;2610526;54;20438;-75
2023/11/16 08:13:17;;;;;;;13.83;4.70;;;;;;;;;;2611055;54;20409;-74
2023/11/16 08:15:46;;;;;;;15.60;4.83;;;;;;;;;;2610098;54;20461;-75
2023/11/16 08:18:14;;;;;;;17.43;5.47;;;;;;;;;;2611070;54;20404;-74
2023/11/16 08:20:41;;;;;;;12.13;5.13;;;;;;;;;;2611087;47;20833;-75
2023/11/16 08:23:09;;;;;;;11.40;4.97;;;;;;;;;;2610276;54;20427;-74
2023/11/16 08:25:37;;;;;;;10.23;5.13;;;;;;;;;;2610898;54;20399;-74
2023/11/16 08:28:07;;;;;;;16.53;5.40;;;;;;;;;;2611600;54;20430;-75
2023/11/16 08:30:33;;;;;;;11.20;5.30;;;;;;;;;;2612305;54;20418;-75
2023/11/16 08:33:00;;;;;;;15.90;5.97;;;;;;;;;;2610367;54;20424;-75
2023/11/16 08:35:26;;;;;;;13.60;5.37;;;;;;;;;;2610778;46;20438;-75
2023/11/16 08:37:55;;;;;;;15.20;6.10;;;;;;;;;;2611479;54;20423;-74
2023/11/16 08:40:23;;;;;;;9.33;5.83;;;;;;;;;;2611029;54;20450;-75
2023/11/16 08:42:51;;;;;;;10.77;4.70;;;;;;;;;;2610485;46;20520;-75
2023/11/16 08:45:21;;;;;;;13.73;5.00;;;;;;;;;;2610179;39;21231;-74
2023/11/16 08:47:57;;;;;;;9.90;5.80;;;;;;;;;;2610173;47;20448;-73
2023/11/16 08:50:23;;;;;;;15.73;5.20;;;;;;;;;;2610271;47;20439;-75
2023/11/16 08:52:51;;;;;;;11.53;5.03;;;;;;;;;;2610128;39;20719;-75
2023/11/16 08:55:23;;;;;;;21.20;7.23;;;;;;;;;;2610132;54;20446;-75
2023/11/16 08:57:51;;;;;;;9.03;5.60;;;;;;;;;;2611168;54;20426;-75
2023/11/16 09:00:33;;;;;;;12.87;5.43;;;;;;;;;;2610650;39;20946;-75
2023/11/16 09:03:08;;;;;;;12.70;5.10;;;;;;;;;;2610533;54;20395;-74
2023/11/16 09:05:39;;;;;;;7.33;4.60;;;;;;;;;;2610024;54;20533;-75
2023/11/16 09:08:09;;;;;;;9.20;3.90;;;;;;;;;;2610570;54;20444;-75
2023/11/16 09:10:35;;;;;;;11.30;5.10;;;;;;;;;;2611279;39;21215;-74
2023/11/16 09:13:03;;;;;;;11.30;4.47;;;;;;;;;;2610147;47;20467;-75
2023/11/16 09:15:29;;;;;;;8.63;5.30;;;;;;;;;;2611000;54;20410;-74
2023/11/16 09:17:58;;;;;;;11.30;4.83;;;;;;;;;;2610636;47;20903;-74
2023/11/16 09:20:25;;;;;;;21.77;6.77;;;;;;;;;;2611696;54;20451;-75
2023/11/16 09:22:53;;;;;;;8.80;4.90;;;;;;;;;;2610401;54;20550;-75
2023/11/16 09:25:19;;;;;;;12.73;5.57;;;;;;;;;;2610585;39;20788;-75
2023/11/16 09:27:50;;;;;;;16.50;5.43;;;;;;;;;;2610243;47;20407;-75
2023/11/16 09:30:22;;;;;;;13.30;5.37;;;;;;;;;;2610660;54;20445;-74
2023/11/16 09:32:50;;;;;;;14.33;5.03;;;;;;;;;;2610451;54;20429;-75
2023/11/16 09:35:19;;;;;;;12.10;6.10;;;;;;;;;;2610207;54;21080;-75
2023/11/16 09:37:46;;;;;;;18.73;6.07;;;;;;;;;;2610484;54;20416;-74
2023/11/16 09:40:19;;;;;;;19.03;5.33;;;;;;;;;;2609376;47;20950;-74
2023/11/16 09:42:48;;;;;;;10.07;5.30;;;;;;;;;;2610886;54;20395;-74
2023/11/16 09:45:15;;;;;;;12.60;5.23;;;;;;;;;;2610562;54;20985;-75
2023/11/16 09:47:45;;;;;;;8.83;5.23;;;;;;;;;;2610143;47;20415;-76
2023/11/16 09:50:12;;;;;;;12.37;6.97;;;;;;;;;;2611030;54;20431;-74
2023/11/16 09:52:39;;;;;;;11.00;4.97;;;;;;;;;;2610603;47;20423;-75
2023/11/16 09:55:09;;;;;;;11.17;5.37;;;;;;;;;;2610366;54;21077;-74
2023/11/16 09:57:37;;;;;;;9.47;5.40;;;;;;;;;;2611828;39;20822;-75
2023/11/16 10:00:14;;;;;;;14.90;5.57;;;;;;;;;;2611346;54;21147;-74
2023/11/16 10:02:43;;;;;;;8.70;4.40;;;;;;;;;;2610942;47;20511;-74
2023/11/16 10:05:23;;;;;;;15.87;6.43;;;;;;;;;;2610600;54;20417;-74
2023/11/16 10:07:53;;;;;;;8.63;4.90;;;;;;;;;;2610793;54;20426;-72
2023/11/16 10:10:20;;;;;;;10.93;5.70;;;;;;;;;;2610658;54;20536;-74
2023/11/16 10:12:47;;;;;;;12.07;4.50;;;;;;;;;;2610381;39;20498;-75
2023/11/16 10:15:23;;;;;;;18.80;5.57;;;;;;;;;;2610994;54;20407;-75
2023/11/16 10:17:50;;;;;;;8.57;4.70;;;;;;;;;;2611067;46;20444;-75
2023/11/16 10:20:17;;;;;;;12.30;4.90;;;;;;;;;;2610490;54;20438;-75
2023/11/16 10:22:47;;;;;;;10.90;6.57;;;;;;;;;;2609729;47;20423;-74
2023/11/16 10:25:14;;;;;;;13.00;5.30;;;;;;;;;;2611121;54;20411;-75
2023/11/16 10:27:44;;;;;;;9.27;4.53;;;;;;;;;;2609982;50;20420;-74
2023/11/16 10:30:15;;;;;;;7.40;4.57;;;;;;;;;;2611197;54;20478;-75
2023/11/16 10:32:49;;;;;;;10.07;5.80;;;;;;;;;;2610783;54;20498;-75
2023/11/16 10:35:16;;;;;;;14.97;5.50;;;;;;;;;;2611313;39;20926;-74
2023/11/16 10:37:42;;;;;;;11.23;5.50;;;;;;;;;;2610461;46;20427;-74
2023/11/16 10:40:10;;;;;;;16.23;5.97;;;;;;;;;;2611293;54;20399;-73
2023/11/16 10:42:37;;;;;;;10.77;5.70;;;;;;;;;;2610873;54;20388;-74
2023/11/16 10:45:04;;;;;;;13.33;5.77;;;;;;;;;;2610901;54;20435;-74
2023/11/16 10:47:31;;;;;;;13.57;5.20;;;;;;;;;;2611300;54;20926;-74
2023/11/16 10:49:58;;;;;;;10.40;6.60;;;;;;;;;;2611332;39;20786;-74
2023/11/16 10:52:26;;;;;;;12.10;5.80;;;;;;;;;;2610550;54;20564;-74
2023/11/16 10:54:55;;;;;;;16.40;5.87;;;;;;;;;;2610645;54;20455;-74
2023/11/16 10:57:21;;;;;;;8.90;4.90;;;;;;;;;;2610041;54;20449;-73
2023/11/16 10:59:48;;;;;;;8.60;5.17;;;;;;;;;;2611463;54;20496;-74
2023/11/16 11:02:24;;;;;;;13.67;5.77;;;;;;;;;;2610293;54;20455;-75
2023/11/16 11:04:53;;;;;;;11.57;5.70;;;;;;;;;;2611928;54;20427;-76
2023/11/16 11:07:19;;;;;;;11.00;5.97;;;;;;;;;;2611952;47;20562;-75
2023/11/16 11:09:48;;;;;;;16.33;7.33;;;;;;;;;;2611676;54;20978;-74
2023/11/16 11:12:16;;;;;;;10.33;5.47;;;;;;;;;;2613945;39;20971;-76
2023/11/16 11:15:01;;;;;;;8.60;5.87;;;;;;;;;;2612133;54;20430;-76
2023/11/16 11:17:32;;;;;;;13.63;6.97;;;;;;;;;;2611876;47;20435;-76
2023/11/16 11:19:59;;;;;;;14.43;6.80;;;;;;;;;;2612546;39;20921;-75
2023/11/16 11:22:27;;;;;;;14.27;5.97;;;;;;;;;;2613132;39;21026;-76
2023/11/16 11:24:55;;;;;;;10.50;5.17;;;;;;;;;;2612310;47;20435;-75
2023/11/16 11:27:28;;;;;;;13.73;4.70;;;;;;;;;;2613797;54;20435;-75
2023/11/16 11:29:57;;;;;;;11.33;6.60;;;;;;;;;;2611929;54;20427;-76
2023/11/16 11:32:29;;;;;;;10.67;5.33;;;;;;;;;;2612689;54;20428;-77
2023/11/16 11:34:57;;;;;;;11.47;6.00;;;;;;;;;;2612120;54;20420;-77
2023/11/16 11:37:37;;;;;;;14.00;6.00;;;;;;;;;;2613229;39;20881;-77
2023/11/16 11:40:04;;;;;;;15.47;6.57;;;;;;;;;;2612767;39;20848;-77
2023/11/16 11:42:37;;;;;;;17.73;6.53;;;;;;;;;;2610734;54;20482;-77
2023/11/16 11:45:04;;;;;;;10.77;6.10;;;;;;;;;;2613014;54;20431;-77
2023/11/16 11:47:32;;;;;;;15.43;6.53;;;;;;;;;;2611686;54;20403;-76
2023/11/16 11:49:58;;;;;;;13.60;6.00;;;;;;;;;;2612265;54;20464;-77
2023/11/16 11:52:25;;;;;;;19.00;6.53;;;;;;;;;;2612855;54;20550;-77
2023/11/16 11:54:51;;;;;;;10.17;6.43;;;;;;;;;;2612444;54;20431;-77
2023/11/16 11:57:18;;;;;;;11.33;5.83;;;;;;;;;;2611922;52;20555;-76
2023/11/16 11:59:45;;;;;;;18.10;6.83;;;;;;;;;;2610946;54;20415;-76
2023/11/16 12:02:12;;;;;;;12.17;7.20;;;;;;;;;;2611330;54;20511;-76
2023/11/16 12:04:39;;;;;;;15.13;5.97;;;;;;;;;;2610965;54;20406;-76
2023/11/16 12:07:07;;;;;;;12.70;6.70;;;;;;;;;;2611519;39;20875;-76
2023/11/16 12:09:33;;;;;;;9.37;5.40;;;;;;;;;;2610728;54;20415;-77
2023/11/16 12:12:03;;;;;;;12.97;5.63;;;;;;;;;;2610815;54;20482;-77
2023/11/16 12:14:32;;;;;;;9.87;6.00;;;;;;;;;;2612356;54;20431;-76
2023/11/16 12:16:58;;;;;;;12.97;5.17;;;;;;;;;;2612414;54;20419;-75
2023/11/16 12:19:27;;;;;;;13.70;5.90;;;;;;;;;;2609586;54;20606;-75
2023/11/16 12:21:53;;;;;;;17.43;5.63;;;;;;;;;;2609861;54;20463;-76
2023/11/16 12:24:24;;;;;;;14.37;6.40;;;;;;;;;;2609851;54;20494;-75
2023/11/16 12:26:52;;;;;;;11.10;6.00;;;;;;;;;;2608826;47;20420;-76
2023/11/16 12:29:23;;;;;;;14.33;6.43;;;;;;;;;;2609490;54;20604;-76
2023/11/16 12:31:49;;;;;;;8.67;5.93;;;;;;;;;;2609793;39;21138;-75
2023/11/16 12:34:15;;;;;;;10.83;6.17;;;;;;;;;;2609387;47;20419;-75
2023/11/16 12:36:44;;;;;;;9.40;5.57;;;;;;;;;;2610522;54;20422;-75
2023/11/16 12:39:13;;;;;;;8.97;5.87;;;;;;;;;;2610656;54;21045;-74
2023/11/16 12:41:40;;;;;;;9.13;5.37;;;;;;;;;;2610241;46;20454;-75
2023/11/16 12:44:07;;;;;;;10.97;5.20;;;;;;;;;;2609803;54;20762;-76
2023/11/16 12:46:35;;;;;;;9.40;6.10;;;;;;;;;;2610725;54;20431;-75
2023/11/16 12:49:01;;;;;;;8.43;4.77;;;;;;;;;;2609641;54;20435;-76
2023/11/16 12:51:27;;;;;;;9.80;6.53;;;;;;;;;;2609088;54;20404;-75
2023/11/16 12:53:53;;;;;;;15.37;6.73;;;;;;;;;;2609272;54;20487;-76
2023/11/16 12:56:19;;;;;;;14.27;10.10;;;;;;;;;;2609721;54;20937;-76
2023/11/16 12:58:45;;;;;;;32.47;18.77;;;;;;;;;;2610227;39;21005;-74
2023/11/16 13:01:12;;;;;;;11.67;7.23;;;;;;;;;;2611991;54;20427;-76
2023/11/16 13:03:38;;;;;;;15.70;7.50;;;;;;;;;;2612255;39;20823;-76
2023/11/16 13:06:05;;;;;;;12.13;6.73;;;;;;;;;;2612512;54;20993;-75
2023/11/16 13:08:37;;;;;;;12.97;7.43;;;;;;;;;;2612018;39;20774;-76
2023/11/16 13:11:03;;;;;;;11.73;7.17;;;;;;;;;;2613145;54;20391;-76
2023/11/16 13:13:30;;;;;;;8.73;6.47;;;;;;;;;;2611688;54;21012;-75
2023/11/16 13:15:57;;;;;;;12.90;7.40;;;;;;;;;;2612823;31;20798;-76
2023/11/16 13:18:24;;;;;;;17.83;8.20;;;;;;;;;;2612208;54;20419;-75
2023/11/16 13:20:50;;;;;;;12.20;7.23;;;;;;;;;;2612861;54;20439;-77
2023/11/16 13:23:16;;;;;;;11.20;7.20;;;;;;;;;;2612648;54;21432;-75
2023/11/16 13:25:42;;;;;;;17.53;7.13;;;;;;;;;;2613143;54;20511;-75
2023/11/16 13:28:09;;;;;;;12.60;6.50;;;;;;;;;;2611912;47;20451;-75
2023/11/16 13:30:38;;;;;;;11.93;6.60;;;;;;;;;;2611896;54;20398;-75
2023/11/16 13:33:05;;;;;;;9.30;6.33;;;;;;;;;;2611831;47;20426;-74
2023/11/16 13:35:31;;;;;;;7.13;6.23;;;;;;;;;;2612221;54;20430;-73
2023/11/16 13:37:57;;;;;;;8.67;5.73;;;;;;;;;;2611770;54;20387;-74
2023/11/16 13:40:24;;;;;;;14.83;7.27;;;;;;;;;;2613022;54;20407;-74
2023/11/16 13:42:50;;;;;;;14.00;7.67;;;;;;;;;;2611743;54;20522;-74
2023/11/16 13:45:18;;;;;;;8.57;6.03;;;;;;;;;;2612361;54;20426;-74
2023/11/16 13:47:44;;;;;;;12.53;6.90;;;;;;;;;;2612761;54;20422;-76
2023/11/16 13:50:11;;;;;;;9.57;6.13;;;;;;;;;;2612312;54;20985;-74
2023/11/16 13:52:37;;;;;;;15.57;9.63;;;;;;;;;;2612258;54;20427;-75
2023/11/16 13:55:06;;;;;;;12.60;6.93;;;;;;;;;;2611756;54;20419;-74
2023/11/16 13:57:32;;;;;;;13.10;8.23;;;;;;;;;;2612285;39;20805;-74
2023/11/16 13:59:58;;;;;;;12.20;6.43;;;;;;;;;;2611870;54;20982;-73
2023/11/16 14:02:25;;;;;;;13.83;6.77;;;;;;;;;;2611775;54;20435;-74
2023/11/16 14:04:51;;;;;;;15.90;7.57;;;;;;;;;;2612132;51;20431;-74
2023/11/16 14:07:23;;;;;;;14.83;7.60;;;;;;;;;;2611794;54;20435;-74
2023/11/16 14:09:51;;;;;;;18.03;9.07;;;;;;;;;;2612017;39;20807;-74
2023/11/16 14:12:18;;;;;;;12.63;8.17;;;;;;;;;;2610203;54;20429;-75
2023/11/16 14:14:44;;;;;;;11.77;8.30;;;;;;;;;;2610645;39;20805;-74
2023/11/16 14:17:12;;;;;;;17.47;10.00;;;;;;;;;;2611500;54;20416;-73
2023/11/16 14:19:38;;;;;;;14.93;9.37;;;;;;;;;;2610613;47;20430;-74
2023/11/16 14:22:05;;;;;;;16.23;9.20;;;;;;;;;;2612509;54;20443;-74
2023/11/16 14:24:31;;;;;;;16.10;8.83;;;;;;;;;;2611571;54;20522;-74
2023/11/16 14:27:00;;;;;;;14.00;9.30;;;;;;;;;;2611517;54;20403;-74
2023/11/16 14:29:26;;;;;;;12.40;7.67;;;;;;;;;;2610625;54;20948;-74
2023/11/16 14:31:52;;;;;;;15.33;8.50;;;;;;;;;;2610952;46;20391;-74
2023/11/16 14:34:18;;;;;;;13.37;8.80;;;;;;;;;;2612539;54;20427;-75
2023/11/16 14:36:44;;;;;;;18.20;9.40;;;;;;;;;;2611620;39;20990;-74